sensor_id;sensor_type;location;lat;lon;timestamp;P1;durP1;ratioP1;P2;durP2;ratioP2
70169;SDS011;57543;45.442;9.212;2023-02-22T00:01:05;40.90;;;20.42;;
70169;SDS011;57543;45.442;9.212;2023-02-22T00:04:21;38.35;;;18.95;;
70169;SDS011;57543;45.442;9.212;2023-02-22T00:07:24;34.40;;;17.57;;
70169;SDS011;57543;45.442;9.212;2023-02-22T00:10:30;35.08;;;17.25;;
70169;SDS011;57543;45.442;9.212;2023-02-22T00:13:34;33.00;;;17.10;;
70169;SDS011;57543;45.442;9.212;2023-02-22T00:16:39;33.53;;;16.27;;
70169;SDS011;57543;45.442;9.212;2023-02-22T00:19:43;35.33;;;17.30;;
70169;SDS011;57543;45.442;9.212;2023-02-22T00:22:47;34.37;;;16.23;;
70169;SDS011;57543;45.442;9.212;2023-02-22T00:25:54;36.67;;;17.38;;
70169;SDS011;57543;45.442;9.212;2023-02-22T00:28:59;30.67;;;14.82;;
70169;SDS011;57543;45.442;9.212;2023-02-22T00:32:03;28.73;;;14.45;;
70169;SDS011;57543;45.442;9.212;2023-02-22T00:35:07;27.40;;;13.90;;
70169;SDS011;57543;45.442;9.212;2023-02-22T00:38:11;26.63;;;13.17;;
70169;SDS011;57543;45.442;9.212;2023-02-22T00:41:17;25.17;;;13.30;;
70169;SDS011;57543;45.442;9.212;2023-02-22T00:44:20;25.23;;;12.95;;
70169;SDS011;57543;45.442;9.212;2023-02-22T00:47:26;25.88;;;12.07;;
70169;SDS011;57543;45.442;9.212;2023-02-22T00:50:31;26.85;;;13.27;;
70169;SDS011;57543;45.442;9.212;2023-02-22T00:53:35;23.20;;;12.00;;
70169;SDS011;57543;45.442;9.212;2023-02-22T00:56:38;23.25;;;11.98;;
70169;SDS011;57543;45.442;9.212;2023-02-22T00:59:42;22.05;;;11.68;;
70169;SDS011;57543;45.442;9.212;2023-02-22T01:02:45;21.42;;;11.98;;
70169;SDS011;57543;45.442;9.212;2023-02-22T01:05:53;22.20;;;12.00;;
70169;SDS011;57543;45.442;9.212;2023-02-22T01:08:56;22.03;;;12.57;;
70169;SDS011;57543;45.442;9.212;2023-02-22T01:12:00;21.58;;;12.30;;
70169;SDS011;57543;45.442;9.212;2023-02-22T01:15:05;22.30;;;11.77;;
70169;SDS011;57543;45.442;9.212;2023-02-22T01:18:12;24.42;;;12.20;;
70169;SDS011;57543;45.442;9.212;2023-02-22T01:21:19;26.75;;;12.93;;
70169;SDS011;57543;45.442;9.212;2023-02-22T01:24:23;22.30;;;12.17;;
70169;SDS011;57543;45.442;9.212;2023-02-22T01:27:26;22.27;;;12.13;;
70169;SDS011;57543;45.442;9.212;2023-02-22T01:30:31;19.25;;;10.85;;
70169;SDS011;57543;45.442;9.212;2023-02-22T01:33:36;23.23;;;11.13;;
70169;SDS011;57543;45.442;9.212;2023-02-22T01:36:39;19.38;;;10.60;;
70169;SDS011;57543;45.442;9.212;2023-02-22T01:39:43;21.67;;;11.10;;
70169;SDS011;57543;45.442;9.212;2023-02-22T01:42:47;19.42;;;10.95;;
70169;SDS011;57543;45.442;9.212;2023-02-22T01:49:50;21.10;;;11.13;;
70169;SDS011;57543;45.442;9.212;2023-02-22T01:52:54;19.13;;;10.80;;
70169;SDS011;57543;45.442;9.212;2023-02-22T01:56:00;24.37;;;13.03;;
70169;SDS011;57543;45.442;9.212;2023-02-22T01:59:07;26.67;;;13.15;;
70169;SDS011;57543;45.442;9.212;2023-02-22T02:02:16;41.33;;;20.70;;
70169;SDS011;57543;45.442;9.212;2023-02-22T02:05:21;49.83;;;22.88;;
70169;SDS011;57543;45.442;9.212;2023-02-22T02:08:29;56.10;;;26.88;;
70169;SDS011;57543;45.442;9.212;2023-02-22T02:11:45;63.97;;;30.90;;
70169;SDS011;57543;45.442;9.212;2023-02-22T02:14:50;59.47;;;29.05;;
70169;SDS011;57543;45.442;9.212;2023-02-22T02:18:02;64.85;;;30.80;;
70169;SDS011;57543;45.442;9.212;2023-02-22T02:41:38;70.50;;;33.53;;
70169;SDS011;57543;45.442;9.212;2023-02-22T02:44:55;73.90;;;33.57;;
70169;SDS011;57543;45.442;9.212;2023-02-22T02:48:06;73.20;;;35.35;;
70169;SDS011;57543;45.442;9.212;2023-02-22T02:51:13;73.25;;;35.42;;
70169;SDS011;57543;45.442;9.212;2023-02-22T02:54:18;73.78;;;35.40;;
70169;SDS011;57543;45.442;9.212;2023-02-22T02:57:24;83.40;;;38.65;;
70169;SDS011;57543;45.442;9.212;2023-02-22T03:00:28;84.70;;;37.17;;
70169;SDS011;57543;45.442;9.212;2023-02-22T03:07:27;88.55;;;40.13;;
70169;SDS011;57543;45.442;9.212;2023-02-22T03:14:03;97.53;;;44.17;;
70169;SDS011;57543;45.442;9.212;2023-02-22T03:23:44;104.20;;;44.10;;
70169;SDS011;57543;45.442;9.212;2023-02-22T03:27:06;104.22;;;45.83;;
70169;SDS011;57543;45.442;9.212;2023-02-22T03:30:17;105.50;;;44.70;;
70169;SDS011;57543;45.442;9.212;2023-02-22T03:33:32;107.33;;;45.53;;
70169;SDS011;57543;45.442;9.212;2023-02-22T03:36:46;109.55;;;44.65;;
70169;SDS011;57543;45.442;9.212;2023-02-22T03:39:59;109.65;;;45.70;;
70169;SDS011;57543;45.442;9.212;2023-02-22T03:43:14;124.40;;;50.75;;
70169;SDS011;57543;45.442;9.212;2023-02-22T03:46:22;127.63;;;50.95;;
70169;SDS011;57543;45.442;9.212;2023-02-22T03:49:36;135.43;;;51.97;;
70169;SDS011;57543;45.442;9.212;2023-02-22T03:52:51;127.53;;;51.85;;
70169;SDS011;57543;45.442;9.212;2023-02-22T03:56:00;134.27;;;53.80;;
70169;SDS011;57543;45.442;9.212;2023-02-22T03:59:08;134.73;;;55.30;;
70169;SDS011;57543;45.442;9.212;2023-02-22T04:02:12;138.65;;;54.47;;
70169;SDS011;57543;45.442;9.212;2023-02-22T04:05:16;134.63;;;55.60;;
70169;SDS011;57543;45.442;9.212;2023-02-22T04:08:20;145.38;;;58.65;;
70169;SDS011;57543;45.442;9.212;2023-02-22T04:11:23;145.70;;;56.78;;
70169;SDS011;57543;45.442;9.212;2023-02-22T04:14:27;146.15;;;57.17;;
70169;SDS011;57543;45.442;9.212;2023-02-22T04:17:33;145.80;;;57.47;;
70169;SDS011;57543;45.442;9.212;2023-02-22T04:20:38;146.10;;;59.50;;
70169;SDS011;57543;45.442;9.212;2023-02-22T04:23:47;143.05;;;57.95;;
70169;SDS011;57543;45.442;9.212;2023-02-22T04:26:50;150.80;;;57.00;;
70169;SDS011;57543;45.442;9.212;2023-02-22T04:29:56;151.35;;;60.58;;
70169;SDS011;57543;45.442;9.212;2023-02-22T04:32:59;158.77;;;59.78;;
70169;SDS011;57543;45.442;9.212;2023-02-22T04:36:04;161.30;;;59.57;;
70169;SDS011;57543;45.442;9.212;2023-02-22T04:39:10;145.85;;;57.40;;
70169;SDS011;57543;45.442;9.212;2023-02-22T04:42:14;155.77;;;57.25;;
70169;SDS011;57543;45.442;9.212;2023-02-22T04:45:17;157.57;;;59.35;;
70169;SDS011;57543;45.442;9.212;2023-02-22T04:48:21;164.65;;;62.03;;
70169;SDS011;57543;45.442;9.212;2023-02-22T04:51:25;154.57;;;59.77;;
70169;SDS011;57543;45.442;9.212;2023-02-22T04:54:34;158.30;;;59.53;;
70169;SDS011;57543;45.442;9.212;2023-02-22T04:57:38;151.68;;;58.10;;
70169;SDS011;57543;45.442;9.212;2023-02-22T05:00:42;163.75;;;59.60;;
70169;SDS011;57543;45.442;9.212;2023-02-22T05:03:46;155.10;;;58.85;;
70169;SDS011;57543;45.442;9.212;2023-02-22T05:06:49;161.67;;;60.20;;
70169;SDS011;57543;45.442;9.212;2023-02-22T05:09:52;156.55;;;59.28;;
70169;SDS011;57543;45.442;9.212;2023-02-22T05:12:56;159.35;;;59.22;;
70169;SDS011;57543;45.442;9.212;2023-02-22T05:15:59;150.10;;;58.28;;
70169;SDS011;57543;45.442;9.212;2023-02-22T05:19:03;158.93;;;58.88;;
70169;SDS011;57543;45.442;9.212;2023-02-22T05:22:07;153.30;;;59.17;;
70169;SDS011;57543;45.442;9.212;2023-02-22T05:25:10;155.07;;;58.13;;
70169;SDS011;57543;45.442;9.212;2023-02-22T05:28:15;149.20;;;58.28;;
70169;SDS011;57543;45.442;9.212;2023-02-22T05:31:19;154.05;;;58.00;;
70169;SDS011;57543;45.442;9.212;2023-02-22T05:34:22;163.13;;;61.38;;
70169;SDS011;57543;45.442;9.212;2023-02-22T05:37:26;158.77;;;58.23;;
70169;SDS011;57543;45.442;9.212;2023-02-22T05:40:29;165.27;;;60.80;;
70169;SDS011;57543;45.442;9.212;2023-02-22T05:43:33;150.63;;;58.60;;
70169;SDS011;57543;45.442;9.212;2023-02-22T05:46:37;151.52;;;56.70;;
70169;SDS011;57543;45.442;9.212;2023-02-22T05:49:41;147.98;;;56.53;;
70169;SDS011;57543;45.442;9.212;2023-02-22T05:52:46;152.67;;;57.47;;
70169;SDS011;57543;45.442;9.212;2023-02-22T05:56:00;151.25;;;57.13;;
70169;SDS011;57543;45.442;9.212;2023-02-22T05:59:04;152.32;;;55.70;;
70169;SDS011;57543;45.442;9.212;2023-02-22T06:02:08;145.40;;;55.20;;
70169;SDS011;57543;45.442;9.212;2023-02-22T06:05:11;143.05;;;55.80;;
70169;SDS011;57543;45.442;9.212;2023-02-22T06:08:16;145.23;;;54.43;;
70169;SDS011;57543;45.442;9.212;2023-02-22T06:11:20;144.32;;;57.45;;
70169;SDS011;57543;45.442;9.212;2023-02-22T06:14:24;153.35;;;58.45;;
70169;SDS011;57543;45.442;9.212;2023-02-22T06:17:27;142.60;;;57.42;;
70169;SDS011;57543;45.442;9.212;2023-02-22T06:20:32;146.25;;;57.95;;
70169;SDS011;57543;45.442;9.212;2023-02-22T06:23:37;143.27;;;58.03;;
70169;SDS011;57543;45.442;9.212;2023-02-22T06:26:41;144.27;;;55.90;;
70169;SDS011;57543;45.442;9.212;2023-02-22T06:29:45;159.32;;;57.83;;
70169;SDS011;57543;45.442;9.212;2023-02-22T06:32:52;145.93;;;57.15;;
70169;SDS011;57543;45.442;9.212;2023-02-22T06:35:56;154.63;;;56.42;;
70169;SDS011;57543;45.442;9.212;2023-02-22T06:38:59;146.10;;;55.13;;
70169;SDS011;57543;45.442;9.212;2023-02-22T06:42:03;147.40;;;57.25;;
70169;SDS011;57543;45.442;9.212;2023-02-22T06:45:07;150.77;;;57.30;;
70169;SDS011;57543;45.442;9.212;2023-02-22T06:48:11;151.23;;;57.65;;
70169;SDS011;57543;45.442;9.212;2023-02-22T06:51:15;150.25;;;57.00;;
70169;SDS011;57543;45.442;9.212;2023-02-22T06:54:18;143.10;;;56.70;;
70169;SDS011;57543;45.442;9.212;2023-02-22T06:57:22;155.60;;;57.45;;
70169;SDS011;57543;45.442;9.212;2023-02-22T07:00:26;151.23;;;56.88;;
70169;SDS011;57543;45.442;9.212;2023-02-22T07:03:31;152.85;;;57.67;;
70169;SDS011;57543;45.442;9.212;2023-02-22T07:06:37;164.57;;;60.60;;
70169;SDS011;57543;45.442;9.212;2023-02-22T07:09:46;151.23;;;57.10;;
70169;SDS011;57543;45.442;9.212;2023-02-22T07:12:50;156.32;;;58.58;;
70169;SDS011;57543;45.442;9.212;2023-02-22T07:15:57;154.95;;;57.30;;
70169;SDS011;57543;45.442;9.212;2023-02-22T07:19:01;142.50;;;54.97;;
70169;SDS011;57543;45.442;9.212;2023-02-22T07:22:05;147.63;;;56.53;;
70169;SDS011;57543;45.442;9.212;2023-02-22T07:25:08;142.00;;;53.17;;
70169;SDS011;57543;45.442;9.212;2023-02-22T07:28:13;148.35;;;55.63;;
70169;SDS011;57543;45.442;9.212;2023-02-22T07:31:17;145.02;;;56.42;;
70169;SDS011;57543;45.442;9.212;2023-02-22T07:34:21;153.63;;;56.38;;
70169;SDS011;57543;45.442;9.212;2023-02-22T07:37:25;145.70;;;56.70;;
70169;SDS011;57543;45.442;9.212;2023-02-22T07:40:29;150.93;;;56.27;;
70169;SDS011;57543;45.442;9.212;2023-02-22T07:43:32;148.45;;;57.65;;
70169;SDS011;57543;45.442;9.212;2023-02-22T07:46:36;148.45;;;56.67;;
70169;SDS011;57543;45.442;9.212;2023-02-22T07:49:40;147.43;;;56.00;;
70169;SDS011;57543;45.442;9.212;2023-02-22T07:52:47;154.75;;;55.50;;
70169;SDS011;57543;45.442;9.212;2023-02-22T07:55:51;148.80;;;54.47;;
70169;SDS011;57543;45.442;9.212;2023-02-22T07:58:58;148.73;;;53.35;;
70169;SDS011;57543;45.442;9.212;2023-02-22T08:02:03;141.25;;;53.70;;
70169;SDS011;57543;45.442;9.212;2023-02-22T08:05:07;144.65;;;54.38;;
70169;SDS011;57543;45.442;9.212;2023-02-22T08:08:15;146.02;;;54.65;;
70169;SDS011;57543;45.442;9.212;2023-02-22T08:11:20;139.67;;;53.27;;
70169;SDS011;57543;45.442;9.212;2023-02-22T08:14:24;139.60;;;53.65;;
70169;SDS011;57543;45.442;9.212;2023-02-22T08:17:27;151.95;;;55.75;;
70169;SDS011;57543;45.442;9.212;2023-02-22T08:20:31;148.70;;;53.00;;
70169;SDS011;57543;45.442;9.212;2023-02-22T08:23:34;149.07;;;54.00;;
70169;SDS011;57543;45.442;9.212;2023-02-22T08:26:46;142.90;;;53.33;;
70169;SDS011;57543;45.442;9.212;2023-02-22T08:29:50;139.45;;;53.65;;
70169;SDS011;57543;45.442;9.212;2023-02-22T08:32:55;144.50;;;53.80;;
70169;SDS011;57543;45.442;9.212;2023-02-22T08:35:59;151.27;;;55.25;;
70169;SDS011;57543;45.442;9.212;2023-02-22T08:39:04;145.02;;;55.25;;
70169;SDS011;57543;45.442;9.212;2023-02-22T08:42:07;138.20;;;53.57;;
70169;SDS011;57543;45.442;9.212;2023-02-22T08:45:12;144.75;;;54.65;;
70169;SDS011;57543;45.442;9.212;2023-02-22T08:48:15;140.20;;;54.72;;
70169;SDS011;57543;45.442;9.212;2023-02-22T08:51:20;145.25;;;57.05;;
70169;SDS011;57543;45.442;9.212;2023-02-22T08:54:25;140.40;;;54.47;;
70169;SDS011;57543;45.442;9.212;2023-02-22T08:57:28;142.60;;;53.73;;
70169;SDS011;57543;45.442;9.212;2023-02-22T09:00:34;144.05;;;56.47;;
70169;SDS011;57543;45.442;9.212;2023-02-22T09:03:38;145.43;;;56.30;;
70169;SDS011;57543;45.442;9.212;2023-02-22T09:06:42;145.65;;;54.78;;
70169;SDS011;57543;45.442;9.212;2023-02-22T09:09:50;137.15;;;53.80;;
70169;SDS011;57543;45.442;9.212;2023-02-22T09:12:53;148.80;;;55.80;;
70169;SDS011;57543;45.442;9.212;2023-02-22T09:15:58;151.90;;;57.92;;
70169;SDS011;57543;45.442;9.212;2023-02-22T09:19:02;152.20;;;57.50;;
70169;SDS011;57543;45.442;9.212;2023-02-22T09:22:06;149.93;;;55.63;;
70169;SDS011;57543;45.442;9.212;2023-02-22T09:25:10;166.93;;;60.97;;
70169;SDS011;57543;45.442;9.212;2023-02-22T09:28:13;155.67;;;58.47;;
70169;SDS011;57543;45.442;9.212;2023-02-22T09:31:17;156.77;;;58.20;;
70169;SDS011;57543;45.442;9.212;2023-02-22T09:34:21;148.48;;;56.17;;
70169;SDS011;57543;45.442;9.212;2023-02-22T09:37:31;155.77;;;60.72;;
70169;SDS011;57543;45.442;9.212;2023-02-22T09:40:36;155.85;;;59.47;;
70169;SDS011;57543;45.442;9.212;2023-02-22T09:47:18;148.00;;;56.95;;
70169;SDS011;57543;45.442;9.212;2023-02-22T09:50:36;159.70;;;58.85;;
70169;SDS011;57543;45.442;9.212;2023-02-22T09:53:44;153.15;;;58.45;;
70169;SDS011;57543;45.442;9.212;2023-02-22T09:56:53;144.93;;;57.42;;
70169;SDS011;57543;45.442;9.212;2023-02-22T10:00:01;152.07;;;59.10;;
70169;SDS011;57543;45.442;9.212;2023-02-22T10:06:23;157.23;;;60.47;;
70169;SDS011;57543;45.442;9.212;2023-02-22T10:09:27;145.05;;;56.33;;
70169;SDS011;57543;45.442;9.212;2023-02-22T10:12:36;162.52;;;61.45;;
70169;SDS011;57543;45.442;9.212;2023-02-22T10:16:05;143.73;;;57.13;;
70169;SDS011;57543;45.442;9.212;2023-02-22T10:25:54;143.18;;;58.05;;
70169;SDS011;57543;45.442;9.212;2023-02-22T10:32:42;133.90;;;54.40;;
70169;SDS011;57543;45.442;9.212;2023-02-22T10:35:48;137.90;;;53.60;;
70169;SDS011;57543;45.442;9.212;2023-02-22T10:38:58;146.77;;;57.45;;
70169;SDS011;57543;45.442;9.212;2023-02-22T10:42:28;139.43;;;55.25;;
70169;SDS011;57543;45.442;9.212;2023-02-22T10:45:34;137.98;;;55.97;;
70169;SDS011;57543;45.442;9.212;2023-02-22T10:48:40;147.10;;;55.73;;
70169;SDS011;57543;45.442;9.212;2023-02-22T10:51:47;142.65;;;57.15;;
70169;SDS011;57543;45.442;9.212;2023-02-22T10:55:03;144.68;;;57.78;;
70169;SDS011;57543;45.442;9.212;2023-02-22T10:58:14;143.35;;;57.72;;
70169;SDS011;57543;45.442;9.212;2023-02-22T11:04:44;155.00;;;60.97;;
70169;SDS011;57543;45.442;9.212;2023-02-22T11:07:52;144.52;;;60.58;;
70169;SDS011;57543;45.442;9.212;2023-02-22T11:11:24;152.90;;;60.40;;
70169;SDS011;57543;45.442;9.212;2023-02-22T11:14:29;150.05;;;60.15;;
70169;SDS011;57543;45.442;9.212;2023-02-22T11:17:33;152.02;;;62.40;;
70169;SDS011;57543;45.442;9.212;2023-02-22T11:20:37;141.87;;;56.73;;
70169;SDS011;57543;45.442;9.212;2023-02-22T11:23:41;149.57;;;60.60;;
70169;SDS011;57543;45.442;9.212;2023-02-22T11:26:47;143.50;;;58.97;;
70169;SDS011;57543;45.442;9.212;2023-02-22T11:29:54;146.38;;;57.78;;
70169;SDS011;57543;45.442;9.212;2023-02-22T11:36:33;145.50;;;57.03;;
70169;SDS011;57543;45.442;9.212;2023-02-22T11:39:43;149.68;;;58.35;;
70169;SDS011;57543;45.442;9.212;2023-02-22T11:42:48;134.90;;;54.65;;
70169;SDS011;57543;45.442;9.212;2023-02-22T11:49:16;131.20;;;53.78;;
70169;SDS011;57543;45.442;9.212;2023-02-22T11:52:24;134.00;;;54.70;;
70169;SDS011;57543;45.442;9.212;2023-02-22T11:55:34;136.05;;;53.97;;
70169;SDS011;57543;45.442;9.212;2023-02-22T11:58:48;139.75;;;55.10;;
70169;SDS011;57543;45.442;9.212;2023-02-22T12:05:44;128.02;;;52.70;;
70169;SDS011;57543;45.442;9.212;2023-02-22T12:09:11;125.07;;;51.60;;
70169;SDS011;57543;45.442;9.212;2023-02-22T12:12:27;135.02;;;54.53;;
70169;SDS011;57543;45.442;9.212;2023-02-22T12:16:10;134.15;;;53.65;;
70169;SDS011;57543;45.442;9.212;2023-02-22T12:19:23;130.40;;;52.97;;
70169;SDS011;57543;45.442;9.212;2023-02-22T12:22:37;130.82;;;53.83;;
70169;SDS011;57543;45.442;9.212;2023-02-22T12:25:55;135.10;;;54.23;;
70169;SDS011;57543;45.442;9.212;2023-02-22T12:29:11;124.55;;;52.33;;
70169;SDS011;57543;45.442;9.212;2023-02-22T12:32:34;131.85;;;54.05;;
70169;SDS011;57543;45.442;9.212;2023-02-22T12:35:50;121.97;;;52.53;;
70169;SDS011;57543;45.442;9.212;2023-02-22T12:38:57;131.65;;;52.40;;
70169;SDS011;57543;45.442;9.212;2023-02-22T12:42:12;125.63;;;50.23;;
70169;SDS011;57543;45.442;9.212;2023-02-22T12:48:51;105.10;;;45.90;;
70169;SDS011;57543;45.442;9.212;2023-02-22T12:58:18;93.93;;;41.13;;
70169;SDS011;57543;45.442;9.212;2023-02-22T13:01:43;108.82;;;44.17;;
70169;SDS011;57543;45.442;9.212;2023-02-22T13:04:52;119.45;;;46.30;;
70169;SDS011;57543;45.442;9.212;2023-02-22T13:15:00;107.87;;;44.57;;
70169;SDS011;57543;45.442;9.212;2023-02-22T13:18:16;101.72;;;41.20;;
70169;SDS011;57543;45.442;9.212;2023-02-22T13:21:30;90.57;;;37.50;;
70169;SDS011;57543;45.442;9.212;2023-02-22T13:24:51;85.75;;;37.15;;
70169;SDS011;57543;45.442;9.212;2023-02-22T13:28:16;98.72;;;41.45;;
70169;SDS011;57543;45.442;9.212;2023-02-22T13:46:02;102.53;;;42.58;;
70169;SDS011;57543;45.442;9.212;2023-02-22T13:49:23;94.67;;;41.90;;
70169;SDS011;57543;45.442;9.212;2023-02-22T13:52:49;99.28;;;41.50;;
70169;SDS011;57543;45.442;9.212;2023-02-22T13:55:55;104.05;;;43.20;;
70169;SDS011;57543;45.442;9.212;2023-02-22T13:59:02;97.65;;;41.05;;
70169;SDS011;57543;45.442;9.212;2023-02-22T14:02:14;94.05;;;40.40;;
70169;SDS011;57543;45.442;9.212;2023-02-22T14:08:45;69.68;;;30.60;;
70169;SDS011;57543;45.442;9.212;2023-02-22T14:11:49;82.80;;;35.63;;
70169;SDS011;57543;45.442;9.212;2023-02-22T14:18:15;61.28;;;27.42;;
70169;SDS011;57543;45.442;9.212;2023-02-22T14:21:20;60.17;;;26.90;;
70169;SDS011;57543;45.442;9.212;2023-02-22T14:24:24;71.63;;;30.15;;
70169;SDS011;57543;45.442;9.212;2023-02-22T14:27:37;60.63;;;26.35;;
70169;SDS011;57543;45.442;9.212;2023-02-22T14:30:42;68.57;;;30.13;;
70169;SDS011;57543;45.442;9.212;2023-02-22T14:37:10;75.97;;;32.07;;
70169;SDS011;57543;45.442;9.212;2023-02-22T14:40:18;70.30;;;31.38;;
70169;SDS011;57543;45.442;9.212;2023-02-22T14:43:28;87.85;;;37.25;;
70169;SDS011;57543;45.442;9.212;2023-02-22T14:46:33;91.63;;;37.38;;
70169;SDS011;57543;45.442;9.212;2023-02-22T14:49:43;87.38;;;37.75;;
70169;SDS011;57543;45.442;9.212;2023-02-22T14:57:16;74.30;;;33.05;;
70169;SDS011;57543;45.442;9.212;2023-02-22T15:00:28;75.20;;;31.83;;
70169;SDS011;57543;45.442;9.212;2023-02-22T15:03:40;78.18;;;33.85;;
70169;SDS011;57543;45.442;9.212;2023-02-22T15:06:43;81.28;;;35.10;;
70169;SDS011;57543;45.442;9.212;2023-02-22T15:09:49;80.03;;;36.07;;
70169;SDS011;57543;45.442;9.212;2023-02-22T15:12:54;83.93;;;35.20;;
70169;SDS011;57543;45.442;9.212;2023-02-22T15:16:11;77.97;;;34.92;;
70169;SDS011;57543;45.442;9.212;2023-02-22T15:19:18;81.43;;;35.15;;
70169;SDS011;57543;45.442;9.212;2023-02-22T15:22:31;78.90;;;34.35;;
70169;SDS011;57543;45.442;9.212;2023-02-22T15:25:38;76.37;;;33.27;;
70169;SDS011;57543;45.442;9.212;2023-02-22T15:28:43;70.00;;;31.88;;
70169;SDS011;57543;45.442;9.212;2023-02-22T15:31:47;70.93;;;31.45;;
70169;SDS011;57543;45.442;9.212;2023-02-22T15:34:51;64.57;;;28.83;;
70169;SDS011;57543;45.442;9.212;2023-02-22T15:41:05;63.33;;;27.57;;
70169;SDS011;57543;45.442;9.212;2023-02-22T15:44:11;56.58;;;25.77;;
70169;SDS011;57543;45.442;9.212;2023-02-22T15:47:16;51.42;;;24.42;;
70169;SDS011;57543;45.442;9.212;2023-02-22T15:53:29;54.20;;;24.40;;
70169;SDS011;57543;45.442;9.212;2023-02-22T15:56:39;52.87;;;24.50;;
70169;SDS011;57543;45.442;9.212;2023-02-22T15:59:51;57.45;;;24.75;;
70169;SDS011;57543;45.442;9.212;2023-02-22T16:02:56;61.33;;;28.63;;
70169;SDS011;57543;45.442;9.212;2023-02-22T16:06:00;62.67;;;29.27;;
70169;SDS011;57543;45.442;9.212;2023-02-22T16:09:11;63.83;;;28.77;;
70169;SDS011;57543;45.442;9.212;2023-02-22T16:15:23;68.82;;;30.58;;
70169;SDS011;57543;45.442;9.212;2023-02-22T16:18:31;70.00;;;31.05;;
70169;SDS011;57543;45.442;9.212;2023-02-22T16:21:53;68.03;;;30.50;;
70169;SDS011;57543;45.442;9.212;2023-02-22T16:28:25;58.80;;;26.97;;
70169;SDS011;57543;45.442;9.212;2023-02-22T16:31:37;64.38;;;27.17;;
70169;SDS011;57543;45.442;9.212;2023-02-22T16:34:41;58.90;;;28.05;;
70169;SDS011;57543;45.442;9.212;2023-02-22T16:37:48;60.30;;;28.20;;
70169;SDS011;57543;45.442;9.212;2023-02-22T16:40:54;66.15;;;27.77;;
70169;SDS011;57543;45.442;9.212;2023-02-22T16:44:00;56.90;;;27.10;;
70169;SDS011;57543;45.442;9.212;2023-02-22T16:47:04;54.90;;;25.80;;
70169;SDS011;57543;45.442;9.212;2023-02-22T16:50:08;55.03;;;26.95;;
70169;SDS011;57543;45.442;9.212;2023-02-22T16:53:14;58.88;;;27.38;;
70169;SDS011;57543;45.442;9.212;2023-02-22T16:56:24;56.22;;;25.60;;
70169;SDS011;57543;45.442;9.212;2023-02-22T16:59:31;60.03;;;27.33;;
70169;SDS011;57543;45.442;9.212;2023-02-22T17:02:40;54.90;;;25.63;;
70169;SDS011;57543;45.442;9.212;2023-02-22T17:05:44;49.67;;;23.55;;
70169;SDS011;57543;45.442;9.212;2023-02-22T17:08:48;41.08;;;19.23;;
70169;SDS011;57543;45.442;9.212;2023-02-22T17:11:54;42.13;;;20.65;;
70169;SDS011;57543;45.442;9.212;2023-02-22T17:14:58;40.90;;;19.10;;
70169;SDS011;57543;45.442;9.212;2023-02-22T17:18:03;43.50;;;20.88;;
70169;SDS011;57543;45.442;9.212;2023-02-22T17:21:16;44.28;;;21.25;;
70169;SDS011;57543;45.442;9.212;2023-02-22T17:24:21;45.67;;;21.15;;
70169;SDS011;57543;45.442;9.212;2023-02-22T17:27:26;47.83;;;21.02;;
70169;SDS011;57543;45.442;9.212;2023-02-22T17:30:29;47.27;;;20.73;;
70169;SDS011;57543;45.442;9.212;2023-02-22T17:33:35;47.50;;;21.75;;
70169;SDS011;57543;45.442;9.212;2023-02-22T17:36:39;44.00;;;20.92;;
70169;SDS011;57543;45.442;9.212;2023-02-22T17:39:44;46.35;;;21.65;;
70169;SDS011;57543;45.442;9.212;2023-02-22T17:42:47;46.03;;;21.02;;
70169;SDS011;57543;45.442;9.212;2023-02-22T17:45:56;45.00;;;20.77;;
70169;SDS011;57543;45.442;9.212;2023-02-22T17:49:00;45.78;;;21.45;;
70169;SDS011;57543;45.442;9.212;2023-02-22T17:52:05;52.00;;;22.52;;
70169;SDS011;57543;45.442;9.212;2023-02-22T17:55:10;48.88;;;22.33;;
70169;SDS011;57543;45.442;9.212;2023-02-22T17:58:15;45.40;;;21.50;;
70169;SDS011;57543;45.442;9.212;2023-02-22T18:01:29;46.30;;;20.83;;
70169;SDS011;57543;45.442;9.212;2023-02-22T18:04:34;47.47;;;21.33;;
70169;SDS011;57543;45.442;9.212;2023-02-22T18:07:38;42.33;;;20.77;;
70169;SDS011;57543;45.442;9.212;2023-02-22T18:10:42;43.30;;;20.63;;
70169;SDS011;57543;45.442;9.212;2023-02-22T18:13:46;45.92;;;20.77;;
70169;SDS011;57543;45.442;9.212;2023-02-22T18:16:50;46.73;;;21.33;;
70169;SDS011;57543;45.442;9.212;2023-02-22T18:19:54;41.15;;;20.52;;
70169;SDS011;57543;45.442;9.212;2023-02-22T18:22:58;45.08;;;19.83;;
70169;SDS011;57543;45.442;9.212;2023-02-22T18:26:02;46.17;;;20.40;;
70169;SDS011;57543;45.442;9.212;2023-02-22T18:29:06;48.10;;;22.20;;
70169;SDS011;57543;45.442;9.212;2023-02-22T18:32:10;50.53;;;22.40;;
70169;SDS011;57543;45.442;9.212;2023-02-22T18:35:15;47.25;;;23.25;;
70169;SDS011;57543;45.442;9.212;2023-02-22T18:38:19;48.25;;;22.08;;
70169;SDS011;57543;45.442;9.212;2023-02-22T18:41:28;39.53;;;20.45;;
70169;SDS011;57543;45.442;9.212;2023-02-22T18:44:32;40.35;;;19.80;;
70169;SDS011;57543;45.442;9.212;2023-02-22T18:47:39;46.27;;;21.33;;
70169;SDS011;57543;45.442;9.212;2023-02-22T18:50:44;48.13;;;22.05;;
70169;SDS011;57543;45.442;9.212;2023-02-22T18:53:48;45.30;;;21.65;;
70169;SDS011;57543;45.442;9.212;2023-02-22T18:56:59;46.45;;;22.02;;
70169;SDS011;57543;45.442;9.212;2023-02-22T19:00:03;47.40;;;22.35;;
70169;SDS011;57543;45.442;9.212;2023-02-22T19:03:07;43.77;;;21.60;;
70169;SDS011;57543;45.442;9.212;2023-02-22T19:06:11;45.25;;;22.25;;
70169;SDS011;57543;45.442;9.212;2023-02-22T19:09:15;50.42;;;23.88;;
70169;SDS011;57543;45.442;9.212;2023-02-22T19:12:19;49.40;;;24.70;;
70169;SDS011;57543;45.442;9.212;2023-02-22T19:15:23;49.97;;;23.67;;
70169;SDS011;57543;45.442;9.212;2023-02-22T19:18:26;51.10;;;24.10;;
70169;SDS011;57543;45.442;9.212;2023-02-22T19:21:30;59.10;;;25.77;;
70169;SDS011;57543;45.442;9.212;2023-02-22T19:24:37;61.35;;;26.65;;
70169;SDS011;57543;45.442;9.212;2023-02-22T19:27:42;51.40;;;25.23;;
70169;SDS011;57543;45.442;9.212;2023-02-22T19:30:46;56.17;;;24.95;;
70169;SDS011;57543;45.442;9.212;2023-02-22T19:33:51;55.47;;;26.27;;
70169;SDS011;57543;45.442;9.212;2023-02-22T19:36:55;55.47;;;25.98;;
70169;SDS011;57543;45.442;9.212;2023-02-22T19:40:03;59.38;;;26.98;;
70169;SDS011;57543;45.442;9.212;2023-02-22T19:43:14;53.70;;;25.77;;
70169;SDS011;57543;45.442;9.212;2023-02-22T19:46:18;55.38;;;26.13;;
70169;SDS011;57543;45.442;9.212;2023-02-22T19:49:28;56.57;;;26.23;;
70169;SDS011;57543;45.442;9.212;2023-02-22T19:52:32;62.72;;;27.17;;
70169;SDS011;57543;45.442;9.212;2023-02-22T19:55:37;53.45;;;26.08;;
70169;SDS011;57543;45.442;9.212;2023-02-22T19:58:41;64.22;;;27.33;;
70169;SDS011;57543;45.442;9.212;2023-02-22T20:01:46;61.55;;;28.63;;
70169;SDS011;57543;45.442;9.212;2023-02-22T20:04:50;61.60;;;28.10;;
70169;SDS011;57543;45.442;9.212;2023-02-22T20:07:54;65.53;;;28.75;;
70169;SDS011;57543;45.442;9.212;2023-02-22T20:10:58;64.95;;;28.65;;
70169;SDS011;57543;45.442;9.212;2023-02-22T20:14:02;65.88;;;29.77;;